Time;durP1;ratioP1;P1;durP2;ratioP2;P2;SDS_P1;SDS_P2;PMS_P1;PMS_P2;Temp;Humidity;BMP_temperature;BMP_pressure;BME280_temperature;BME280_humidity;BME280_pressure;Samples;Min_cycle;Max_cycle;Signal;HPM_P1;HPM_P2
2023/03/05 00:00:28;;;;;;;;;;;6.30;99.90;;;;;;6151317;23;19944;-84
2023/03/05 00:02:53;;;;;;;;;;;6.30;99.90;;;;;;6150798;23;20354;-84
2023/03/05 00:05:18;;;;;;;;;;;6.20;99.90;;;;;;6150945;23;20013;-84
2023/03/05 00:07:44;;;;;;;;;;;6.30;99.90;;;;;;6151214;23;19911;-84
2023/03/05 00:10:09;;;;;;;;;;;6.20;99.90;;;;;;6151698;23;19905;-84
2023/03/05 00:12:35;;;;;;;;;;;6.20;99.90;;;;;;6153569;23;20308;-84
2023/03/05 00:15:00;;;;;;;;;;;6.20;99.90;;;;;;6258006;22;19983;-84
2023/03/05 00:17:26;;;;;;;;;;;6.20;99.90;;;;;;6254782;22;19909;-84
2023/03/05 00:19:51;;;;;;;;;;;6.20;99.90;;;;;;6151657;23;20237;-84
2023/03/05 00:22:17;;;;;;;;;;;6.30;99.90;;;;;;6154048;23;19966;-84
2023/03/05 00:24:42;;;;;;;;;;;6.20;64.00;;;;;;6154989;23;19908;-84
2023/03/05 00:27:07;;;;;;;;;;;6.30;99.90;;;;;;6257645;22;19912;-84
2023/03/05 00:29:33;;;;;;;;;;;6.40;1.00;;;;;;6257617;22;19905;-84
2023/03/05 00:31:58;;;;;;;;;;;6.40;1.00;;;;;;6152021;23;19905;-84
2023/03/05 00:34:24;;;;;;;;;;;6.40;1.00;;;;;;6151014;23;19904;-84
2023/03/05 00:36:50;;;;;;;;;;;6.50;1.00;;;;;;6255977;22;19984;-84
2023/03/05 00:39:17;;;;;;;;;;;6.50;1.00;;;;;;6257381;22;19912;-84
2023/03/05 00:41:42;;;;;;;;;;;6.50;1.00;;;;;;6255337;22;19987;-84
2023/03/05 00:44:08;;;;;;;;;;;6.50;1.00;;;;;;6253597;22;19958;-84
2023/03/05 00:46:34;;;;;;;;;;;6.50;1.00;;;;;;6151209;23;19905;-84
2023/03/05 00:48:59;;;;;;;;;;;6.50;1.00;;;;;;6150977;23;19928;-83
2023/03/05 00:51:25;;;;;;;;;;;6.50;1.00;;;;;;6253593;22;19955;-84
2023/03/05 00:53:50;;;;;;;;;;;6.50;1.00;;;;;;6150067;23;19919;-83
2023/03/05 00:56:16;;;;;;;;;;;6.50;1.00;;;;;;6254878;22;20345;-83
2023/03/05 00:58:41;;;;;;;;;;;6.40;1.00;;;;;;6154606;23;20351;-84
2023/03/05 01:01:07;;;;;;;;;;;6.40;1.00;;;;;;6256141;22;19912;-85
2023/03/05 01:03:33;;;;;;;;;;;6.40;1.00;;;;;;6154116;23;19988;-85
2023/03/05 01:05:59;;;;;;;;;;;6.50;1.00;;;;;;6153984;23;19904;-84
2023/03/05 01:08:25;;;;;;;;;;;6.40;1.00;;;;;;6253856;22;19911;-84
2023/03/05 01:10:50;;;;;;;;;;;6.40;1.00;;;;;;6151306;23;19997;-83
2023/03/05 01:13:16;;;;;;;;;;;6.40;1.00;;;;;;6253524;22;19912;-83
2023/03/05 01:15:41;;;;;;;;;;;6.50;1.00;;;;;;6151427;23;19911;-83
2023/03/05 01:18:07;;;;;;;;;;;6.40;1.00;;;;;;6151026;23;19912;-83
2023/03/05 01:20:32;;;;;;;;;;;6.50;1.00;;;;;;6151796;23;19974;-84
2023/03/05 01:22:58;;;;;;;;;;;6.50;1.00;;;;;;6261100;22;19912;-83
2023/03/05 01:25:23;;;;;;;;;;;6.50;1.00;;;;;;6157733;23;20373;-84
2023/03/05 01:27:49;;;;;;;;;;;6.50;1.00;;;;;;6150877;23;19905;-83
2023/03/05 01:30:15;;;;;;;;;;;6.50;1.00;;;;;;6253409;22;20237;-83
2023/03/05 01:32:40;;;;;;;;;;;6.50;99.90;;;;;;6261466;22;19904;-84
2023/03/05 01:35:06;;;;;;;;;;;6.50;1.00;;;;;;6156666;23;19904;-84
2023/03/05 01:37:32;;;;;;;;;;;6.50;1.00;;;;;;6253973;22;20403;-84
2023/03/05 01:39:57;;;;;;;;;;;6.50;99.90;;;;;;6150954;23;20477;-84
2023/03/05 01:42:23;;;;;;;;;;;6.60;99.90;;;;;;6256532;22;19940;-84
2023/03/05 01:45:01;;;;;;;;;;;6.60;99.90;;;;;;6257628;22;19908;-84
2023/03/05 01:47:26;;;;;;;;;;;6.60;99.90;;;;;;6257244;22;19905;-84
2023/03/05 01:49:53;;;;;;;;;;;6.60;99.90;;;;;;6154511;23;20244;-84
2023/03/05 01:52:20;;;;;;;;;;;6.50;99.90;;;;;;6253536;22;19911;-84
2023/03/05 01:54:46;;;;;;;;;;;6.40;1.00;;;;;;6150577;23;19916;-84
2023/03/05 01:57:16;;;;;;;;;;;6.40;1.00;;;;;;6255698;22;19905;-84
2023/03/05 01:59:43;;;;;;;;;;;6.40;1.00;;;;;;6154104;23;19911;-84
2023/03/05 02:02:09;;;;;;;;;;;6.20;99.90;;;;;;6255270;22;19935;-84
2023/03/05 02:04:42;;;;;;;;;;;6.00;1.00;;;;;;6152844;23;19912;-84
2023/03/05 02:07:08;;;;;;;;;;;6.00;1.00;;;;;;6153236;23;19904;-84
2023/03/05 02:09:36;;;;;;;;;;;6.00;1.00;;;;;;6152795;23;19912;-84
2023/03/05 02:12:01;;;;;;;;;;;6.00;41.50;;;;;;6255222;22;19905;-84
2023/03/05 02:14:27;;;;;;;;;;;5.90;99.60;;;;;;6152402;23;20296;-84
2023/03/05 02:16:52;;;;;;;;;;;5.70;99.90;;;;;;6255890;22;19955;-84
2023/03/05 02:19:18;;;;;;;;;;;5.80;1.00;;;;;;6255818;22;19935;-84
2023/03/05 02:21:45;;;;;;;;;;;5.80;1.00;;;;;;6254843;22;19905;-84
2023/03/05 02:24:11;;;;;;;;;;;5.80;1.00;;;;;;6254619;22;19936;-84
2023/03/05 02:26:37;;;;;;;;;;;5.80;1.00;;;;;;6255157;22;19905;-84
2023/03/05 02:29:03;;;;;;;;;;;5.80;1.00;;;;;;6152048;23;19947;-84
2023/03/05 02:31:30;;;;;;;;;;;5.80;99.90;;;;;;6254082;22;19912;-84
2023/03/05 02:33:55;;;;;;;;;;;5.90;99.90;;;;;;6152240;23;19931;-84
2023/03/05 02:36:22;;;;;;;;;;;6.00;1.00;;;;;;6254052;22;20377;-83
2023/03/05 02:38:47;;;;;;;;;;;6.00;99.90;;;;;;6252933;22;20030;-83
2023/03/05 02:41:13;;;;;;;;;;;6.00;99.90;;;;;;6253111;22;19934;-84
2023/03/05 02:43:39;;;;;;;;;;;6.00;99.90;;;;;;6255572;22;20246;-84
2023/03/05 02:46:05;;;;;;;;;;;6.00;99.90;;;;;;6270490;22;19908;-84
2023/03/05 02:48:31;;;;;;;;;;;6.00;47.80;;;;;;6270045;22;20023;-84
2023/03/05 02:50:56;;;;;;;;;;;6.00;91.60;;;;;;6154953;23;20237;-85
2023/03/05 02:53:22;;;;;;;;;;;6.10;99.90;;;;;;6257873;22;19909;-84
2023/03/05 02:55:48;;;;;;;;;;;6.10;99.90;;;;;;6257160;22;19928;-83
2023/03/05 02:58:14;;;;;;;;;;;6.10;99.90;;;;;;6150216;23;19905;-84
2023/03/05 03:00:40;;;;;;;;;;;6.20;99.90;;;;;;6150654;23;19928;-84
2023/03/05 03:03:05;;;;;;;;;;;6.20;99.90;;;;;;6257163;22;19904;-84
2023/03/05 03:05:31;;;;;;;;;;;6.20;99.90;;;;;;6154467;23;19916;-84
2023/03/05 03:07:56;;;;;;;;;;;6.20;99.90;;;;;;6257148;22;19912;-84
2023/03/05 03:10:22;;;;;;;;;;;6.20;99.90;;;;;;6154249;23;19909;-84
2023/03/05 03:12:47;;;;;;;;;;;6.20;99.90;;;;;;6256908;22;20341;-84
2023/03/05 03:15:14;;;;;;;;;;;6.10;99.90;;;;;;6256164;22;19993;-84
2023/03/05 03:17:39;;;;;;;;;;;6.10;99.90;;;;;;6154276;23;19980;-84
2023/03/05 03:20:06;;;;;;;;;;;6.10;99.90;;;;;;6155163;23;19928;-84
2023/03/05 03:22:32;;;;;;;;;;;6.00;99.90;;;;;;6154565;23;19905;-84
2023/03/05 03:24:57;;;;;;;;;;;6.10;99.90;;;;;;6154791;23;19915;-84
2023/03/05 03:27:22;;;;;;;;;;;6.10;99.90;;;;;;6257892;22;19905;-84
2023/03/05 03:29:48;;;;;;;;;;;6.10;99.90;;;;;;6257992;22;20312;-84
2023/03/05 03:32:13;;;;;;;;;;;6.20;99.90;;;;;;6255018;22;19909;-84
2023/03/05 03:34:39;;;;;;;;;;;6.20;99.90;;;;;;6254528;22;19905;-83
2023/03/05 03:37:04;;;;;;;;;;;6.20;99.90;;;;;;6153216;23;20493;-84
2023/03/05 03:39:30;;;;;;;;;;;6.20;99.90;;;;;;6257382;22;19905;-84
2023/03/05 03:41:55;;;;;;;;;;;6.20;99.90;;;;;;6154352;23;19911;-84
2023/03/05 03:44:21;;;;;;;;;;;6.20;99.90;;;;;;6153933;23;19916;-84
2023/03/05 03:46:48;;;;;;;;;;;6.20;99.90;;;;;;6256722;22;20233;-84
2023/03/05 03:49:32;;;;;;;;;;;6.20;99.90;;;;;;6153490;23;19904;-84
2023/03/05 03:51:57;;;;;;;;;;;6.20;99.90;;;;;;6256790;22;19905;-84
2023/03/05 03:54:23;;;;;;;;;;;6.30;99.90;;;;;;6256973;22;19913;-84
2023/03/05 03:56:48;;;;;;;;;;;6.30;99.90;;;;;;6257566;22;19915;-83
2023/03/05 03:59:14;;;;;;;;;;;6.30;99.90;;;;;;6154953;23;20279;-83
2023/03/05 04:01:40;;;;;;;;;;;6.30;15.40;;;;;;6255903;22;19925;-84
2023/03/05 04:04:05;;;;;;;;;;;6.30;16.70;;;;;;6153168;23;19912;-84
2023/03/05 04:06:31;;;;;;;;;;;6.30;11.40;;;;;;6256050;22;19904;-84
2023/03/05 04:08:57;;;;;;;;;;;6.20;1.00;;;;;;6255972;22;20245;-84
2023/03/05 04:11:22;;;;;;;;;;;6.20;1.00;;;;;;6255676;22;19904;-84
2023/03/05 04:13:48;;;;;;;;;;;6.10;26.80;;;;;;6153010;23;19905;-84
2023/03/05 04:16:14;;;;;;;;;;;6.10;1.00;;;;;;6159038;23;19934;-84
2023/03/05 04:18:40;;;;;;;;;;;6.10;1.00;;;;;;6265728;22;19908;-84
2023/03/05 04:21:05;;;;;;;;;;;6.10;21.40;;;;;;6261419;22;20227;-85
2023/03/05 04:23:31;;;;;;;;;;;6.10;22.10;;;;;;6160579;23;19904;-85
2023/03/05 04:25:57;;;;;;;;;;;6.10;77.60;;;;;;6262619;22;20318;-84
2023/03/05 04:28:22;;;;;;;;;;;6.10;99.90;;;;;;6254294;22;20447;-84
2023/03/05 04:30:48;;;;;;;;;;;6.00;99.90;;;;;;6152470;23;19913;-85
2023/03/05 04:33:13;;;;;;;;;;;6.10;99.90;;;;;;6159947;23;20330;-84
2023/03/05 04:35:39;;;;;;;;;;;6.10;99.90;;;;;;6159129;23;19905;-85
2023/03/05 04:38:04;;;;;;;;;;;6.10;99.90;;;;;;6262099;22;19909;-85
2023/03/05 04:40:30;;;;;;;;;;;6.10;99.90;;;;;;6158857;23;20389;-85
2023/03/05 04:42:55;;;;;;;;;;;6.10;99.90;;;;;;6158156;23;20247;-84
2023/03/05 04:45:21;;;;;;;;;;;6.10;99.90;;;;;;6157652;23;19909;-85
2023/03/05 04:47:46;;;;;;;;;;;6.20;99.90;;;;;;6152230;23;19904;-84
2023/03/05 04:50:12;;;;;;;;;;;6.20;99.90;;;;;;6255144;22;19932;-84
2023/03/05 04:52:41;;;;;;;;;;;6.20;99.90;;;;;;6157576;23;19905;-85
2023/03/05 04:55:07;;;;;;;;;;;6.20;99.90;;;;;;6259761;22;19920;-85
2023/03/05 04:57:33;;;;;;;;;;;6.20;99.90;;;;;;6152992;23;19942;-84
2023/03/05 04:59:59;;;;;;;;;;;6.20;99.90;;;;;;6152198;23;20216;-83
2023/03/05 05:02:25;;;;;;;;;;;6.20;99.90;;;;;;6155479;23;19987;-85
2023/03/05 05:04:53;;;;;;;;;;;6.20;99.90;;;;;;6155928;23;19909;-85
2023/03/05 05:07:19;;;;;;;;;;;6.20;99.90;;;;;;6259330;22;19905;-85
2023/03/05 05:09:44;;;;;;;;;;;6.10;99.90;;;;;;6155772;23;19915;-85
2023/03/05 05:12:10;;;;;;;;;;;6.10;99.90;;;;;;6254886;22;19909;-84
2023/03/05 05:14:35;;;;;;;;;;;6.10;99.90;;;;;;6151628;23;19905;-83
2023/03/05 05:17:03;;;;;;;;;;;6.10;99.90;;;;;;6256413;22;19912;-85
2023/03/05 05:19:30;;;;;;;;;;;6.20;99.90;;;;;;6258346;22;20297;-85
2023/03/05 05:21:55;;;;;;;;;;;6.10;99.90;;;;;;6256352;22;19916;-85
2023/03/05 05:24:20;;;;;;;;;;;6.10;99.90;;;;;;6256694;22;19909;-85
2023/03/05 05:26:46;;;;;;;;;;;6.10;99.90;;;;;;6255847;22;19954;-83
2023/03/05 05:29:11;;;;;;;;;;;6.10;99.90;;;;;;6151466;23;19904;-85
2023/03/05 05:31:37;;;;;;;;;;;6.10;99.90;;;;;;6153433;23;19905;-85
2023/03/05 05:34:03;;;;;;;;;;;6.10;99.90;;;;;;6255826;22;19909;-85
2023/03/05 05:36:28;;;;;;;;;;;6.10;99.90;;;;;;6161001;23;19905;-85
2023/03/05 05:38:54;;;;;;;;;;;6.00;99.90;;;;;;6258962;22;19958;-84
2023/03/05 05:41:19;;;;;;;;;;;6.00;99.90;;;;;;6254326;22;20227;-84
2023/03/05 05:43:45;;;;;;;;;;;6.00;99.90;;;;;;6150670;23;19930;-84
2023/03/05 05:46:12;;;;;;;;;;;5.90;99.90;;;;;;6260863;22;19905;-84
2023/03/05 05:48:38;;;;;;;;;;;5.90;99.90;;;;;;6278356;22;19905;-84
2023/03/05 05:51:07;;;;;;;;;;;5.90;99.90;;;;;;6266247;22;19940;-85
2023/03/05 05:53:33;;;;;;;;;;;5.90;99.90;;;;;;6164878;23;20298;-85
2023/03/05 05:55:59;;;;;;;;;;;6.00;99.90;;;;;;6263991;22;19927;-84
2023/03/05 05:58:24;;;;;;;;;;;5.90;99.90;;;;;;6263096;22;19915;-85
2023/03/05 06:00:50;;;;;;;;;;;5.90;99.90;;;;;;6158388;23;19905;-84
2023/03/05 06:03:15;;;;;;;;;;;5.90;99.90;;;;;;6152884;23;19905;-84
2023/03/05 06:05:41;;;;;;;;;;;5.80;99.90;;;;;;6254749;22;20310;-84
2023/03/05 06:08:07;;;;;;;;;;;5.80;99.90;;;;;;6254055;22;19927;-84
2023/03/05 06:10:33;;;;;;;;;;;5.90;99.90;;;;;;6150842;23;19932;-84
2023/03/05 06:12:58;;;;;;;;;;;5.90;99.90;;;;;;6253823;22;20246;-84
2023/03/05 06:15:24;;;;;;;;;;;6.00;99.90;;;;;;6151937;23;19917;-84
2023/03/05 06:17:49;;;;;;;;;;;5.90;99.90;;;;;;6256997;22;19905;-84
2023/03/05 06:20:15;;;;;;;;;;;6.00;99.90;;;;;;6155120;23;19908;-84
2023/03/05 06:22:40;;;;;;;;;;;6.00;99.90;;;;;;6156948;23;19904;-83
2023/03/05 06:25:06;;;;;;;;;;;6.00;99.90;;;;;;6155995;23;20223;-84
2023/03/05 06:27:33;;;;;;;;;;;5.90;99.90;;;;;;6155948;23;19950;-84
2023/03/05 06:29:58;;;;;;;;;;;5.90;99.90;;;;;;6258889;22;19943;-84
2023/03/05 06:32:24;;;;;;;;;;;6.00;99.90;;;;;;6255984;22;19908;-84
2023/03/05 06:34:49;;;;;;;;;;;6.00;99.90;;;;;;6153475;23;19984;-84
2023/03/05 06:37:15;;;;;;;;;;;6.00;99.90;;;;;;6256784;22;20330;-84
2023/03/05 06:39:40;;;;;;;;;;;6.00;99.90;;;;;;6256388;22;20363;-84
2023/03/05 06:42:06;;;;;;;;;;;6.00;99.90;;;;;;6153382;23;19905;-84
2023/03/05 06:44:31;;;;;;;;;;;6.00;99.90;;;;;;6256647;22;19909;-84
2023/03/05 06:46:57;;;;;;;;;;;6.00;99.90;;;;;;6153380;23;19912;-85
2023/03/05 06:49:22;;;;;;;;;;;6.00;99.90;;;;;;6153137;23;19905;-84
2023/03/05 06:51:48;;;;;;;;;;;6.00;99.90;;;;;;6152510;23;19905;-84
2023/03/05 06:54:15;;;;;;;;;;;6.00;99.90;;;;;;6256174;22;20296;-84
2023/03/05 06:56:41;;;;;;;;;;;5.90;99.90;;;;;;6153524;23;19950;-84
2023/03/05 06:59:07;;;;;;;;;;;5.90;99.90;;;;;;6154559;23;19908;-84
2023/03/05 07:01:33;;;;;;;;;;;6.00;99.90;;;;;;6256210;22;19912;-84
2023/03/05 07:04:01;;;;;;;;;;;6.00;99.90;;;;;;6256276;22;20345;-84
2023/03/05 07:06:27;;;;;;;;;;;6.10;99.90;;;;;;6152931;23;20399;-84
2023/03/05 07:08:53;;;;;;;;;;;6.00;99.90;;;;;;6255068;22;19919;-84
2023/03/05 07:11:20;;;;;;;;;;;6.10;99.90;;;;;;6255278;22;19951;-84
2023/03/05 07:13:47;;;;;;;;;;;6.20;99.90;;;;;;6154135;23;19905;-84
2023/03/05 07:16:14;;;;;;;;;;;6.10;1.00;;;;;;6260531;22;19924;-84
2023/03/05 07:18:39;;;;;;;;;;;6.10;1.00;;;;;;6266096;22;19905;-84
2023/03/05 07:21:05;;;;;;;;;;;6.00;19.60;;;;;;6160481;23;20306;-85
2023/03/05 07:23:31;;;;;;;;;;;6.00;99.90;;;;;;6263676;22;19983;-85
2023/03/05 07:25:59;;;;;;;;;;;5.90;99.90;;;;;;6160752;23;19905;-84
2023/03/05 07:28:24;;;;;;;;;;;5.90;99.90;;;;;;6262614;22;19909;-85
2023/03/05 07:31:00;;;;;;;;;;;6.10;99.90;;;;;;6159910;23;19927;-84
2023/03/05 07:33:26;;;;;;;;;;;6.20;99.90;;;;;;6159061;23;20300;-85
2023/03/05 07:35:52;;;;;;;;;;;6.20;1.00;;;;;;6158958;23;19912;-84
2023/03/05 07:38:17;;;;;;;;;;;6.20;1.00;;;;;;6262037;22;19904;-85
2023/03/05 07:40:43;;;;;;;;;;;6.30;99.90;;;;;;6261383;22;19911;-85
2023/03/05 07:43:08;;;;;;;;;;;6.30;99.90;;;;;;6158257;23;19909;-84
2023/03/05 07:45:37;;;;;;;;;;;6.40;99.90;;;;;;6158212;23;19982;-84
2023/03/05 07:48:03;;;;;;;;;;;6.40;99.90;;;;;;6158457;23;19936;-84
2023/03/05 07:50:28;;;;;;;;;;;6.50;1.00;;;;;;6158044;23;19905;-84
2023/03/05 07:52:54;;;;;;;;;;;6.60;1.00;;;;;;6260616;22;19940;-84
2023/03/05 07:55:19;;;;;;;;;;;6.50;99.90;;;;;;6259283;22;19955;-84
2023/03/05 07:57:45;;;;;;;;;;;6.50;1.00;;;;;;6255095;22;20348;-84
2023/03/05 08:00:10;;;;;;;;;;;6.50;99.90;;;;;;6151691;23;19913;-84
2023/03/05 08:02:36;;;;;;;;;;;6.60;91.30;;;;;;6153186;23;19904;-84
2023/03/05 08:05:01;;;;;;;;;;;6.60;22.60;;;;;;6153881;23;19913;-84
2023/03/05 08:07:27;;;;;;;;;;;6.60;1.00;;;;;;6256992;22;19912;-84
2023/03/05 08:09:52;;;;;;;;;;;6.70;1.00;;;;;;6256763;22;19905;-84
2023/03/05 08:12:18;;;;;;;;;;;6.70;1.00;;;;;;6256124;22;20539;-84
2023/03/05 08:14:43;;;;;;;;;;;6.70;1.00;;;;;;6255812;22;20030;-84
2023/03/05 08:17:09;;;;;;;;;;;6.60;99.90;;;;;;6256223;22;19912;-84
2023/03/05 08:19:34;;;;;;;;;;;6.60;1.00;;;;;;6256037;22;20297;-84
2023/03/05 08:22:00;;;;;;;;;;;6.60;1.00;;;;;;6151929;23;19905;-84
2023/03/05 08:24:28;;;;;;;;;;;6.70;99.90;;;;;;6253863;22;19912;-83
2023/03/05 08:26:57;;;;;;;;;;;6.70;86.50;;;;;;6152672;23;20254;-84
2023/03/05 08:29:22;;;;;;;;;;;6.80;99.90;;;;;;6256006;22;19904;-84
2023/03/05 08:31:48;;;;;;;;;;;6.60;99.90;;;;;;6255416;22;19905;-84
2023/03/05 08:34:14;;;;;;;;;;;6.60;1.00;;;;;;6152420;23;19925;-84
2023/03/05 08:36:40;;;;;;;;;;;6.70;1.00;;;;;;6152632;23;19950;-84
2023/03/05 08:39:08;;;;;;;;;;;6.70;1.00;;;;;;6151969;23;19904;-84
2023/03/05 08:41:34;;;;;;;;;;;6.60;1.00;;;;;;6255059;22;19908;-84
2023/03/05 08:43:59;;;;;;;;;;;6.60;99.90;;;;;;6264270;22;19992;-84
2023/03/05 08:46:25;;;;;;;;;;;6.70;99.90;;;;;;6167301;23;19936;-84
2023/03/05 08:48:50;;;;;;;;;;;6.70;13.50;;;;;;6161416;23;20384;-85
2023/03/05 08:51:18;;;;;;;;;;;6.70;65.20;;;;;;6159764;23;19993;-85
2023/03/05 08:53:44;;;;;;;;;;;6.90;99.90;;;;;;6159541;23;19908;-85
2023/03/05 08:56:09;;;;;;;;;;;7.00;99.90;;;;;;6158170;23;19911;-84
2023/03/05 08:58:35;;;;;;;;;;;7.20;99.90;;;;;;6260414;22;19984;-85
2023/03/05 09:01:01;;;;;;;;;;;7.30;1.00;;;;;;6261358;22;19905;-84
2023/03/05 09:03:26;;;;;;;;;;;7.30;1.00;;;;;;6260965;22;19904;-84
2023/03/05 09:05:52;;;;;;;;;;;7.40;1.00;;;;;;6262420;22;19908;-83
2023/03/05 09:08:18;;;;;;;;;;;7.40;1.00;;;;;;6260551;22;19916;-83
2023/03/05 09:10:44;;;;;;;;;;;7.60;1.00;;;;;;6157883;23;19911;-83
2023/03/05 09:13:10;;;;;;;;;;;7.50;1.00;;;;;;6157192;23;19905;-83
2023/03/05 09:15:35;;;;;;;;;;;7.60;99.90;;;;;;6156536;23;19914;-83
2023/03/05 09:18:01;;;;;;;;;;;8.00;1.00;;;;;;6156973;23;19909;-83
2023/03/05 09:20:27;;;;;;;;;;;8.30;99.90;;;;;;6157646;23;19905;-83
2023/03/05 09:22:52;;;;;;;;;;;8.70;1.00;;;;;;6259528;22;19904;-83
2023/03/05 09:25:18;;;;;;;;;;;9.00;99.90;;;;;;6259943;22;19947;-83
2023/03/05 09:27:44;;;;;;;;;;;9.00;1.00;;;;;;6259180;22;19905;-83
2023/03/05 09:30:10;;;;;;;;;;;9.30;1.00;;;;;;6157259;23;19904;-83
2023/03/05 09:32:35;;;;;;;;;;;9.30;99.90;;;;;;6158169;23;19905;-83
2023/03/05 09:35:01;;;;;;;;;;;9.30;99.90;;;;;;6258241;22;19944;-83
2023/03/05 09:37:28;;;;;;;;;;;9.60;99.90;;;;;;6154703;23;19905;-83
2023/03/05 09:39:53;;;;;;;;;;;9.40;99.90;;;;;;6256497;22;19904;-82
2023/03/05 09:42:25;;;;;;;;;;;9.10;99.90;;;;;;6256222;22;19911;-82
2023/03/05 09:44:51;;;;;;;;;;;9.10;99.90;;;;;;6153947;23;19909;-83
2023/03/05 09:47:43;;;;;;;;;;;9.00;99.90;;;;;;6256373;22;19944;-83
2023/03/05 09:50:31;;;;;;;;;;;8.70;99.90;;;;;;6155278;23;20265;-83
2023/03/05 09:53:01;;;;;;;;;;;8.60;1.00;;;;;;6253960;22;19904;-83
2023/03/05 09:55:27;;;;;;;;;;;8.70;1.00;;;;;;6151047;23;19919;-83
2023/03/05 09:57:55;;;;;;;;;;;8.50;1.00;;;;;;6255623;22;19905;-83
2023/03/05 10:00:32;;;;;;;;;;;8.40;99.90;;;;;;6255787;22;19905;-83
2023/03/05 10:02:59;;;;;;;;;;;8.20;1.00;;;;;;6253952;22;19908;-83
2023/03/05 10:05:29;;;;;;;;;;;8.00;99.90;;;;;;6253473;22;20285;-82
2023/03/05 10:08:00;;;;;;;;;;;7.90;99.90;;;;;;6151421;23;19905;-83
2023/03/05 10:10:39;;;;;;;;;;;7.70;40.20;;;;;;6254276;22;19908;-83
2023/03/05 10:13:10;;;;;;;;;;;7.60;99.90;;;;;;6258190;22;19909;-83
2023/03/05 10:15:42;;;;;;;;;;;7.60;99.90;;;;;;6272202;22;20004;-83
2023/03/05 10:18:17;;;;;;;;;;;7.50;99.90;;;;;;6158972;23;19905;-83
2023/03/05 10:20:51;;;;;;;;;;;7.40;99.90;;;;;;6260574;22;19980;-83
2023/03/05 10:23:24;;;;;;;;;;;7.30;99.90;;;;;;6259661;22;20051;-83
2023/03/05 10:26:08;;;;;;;;;;;7.40;99.90;;;;;;6259782;22;19937;-83
2023/03/05 10:28:37;;;;;;;;;;;7.40;1.00;;;;;;6158326;23;19911;-83
2023/03/05 10:31:23;;;;;;;;;;;7.30;1.00;;;;;;6157892;23;20246;-83
2023/03/05 10:34:02;;;;;;;;;;;7.30;99.90;;;;;;6261122;22;20215;-83
2023/03/05 10:36:44;;;;;;;;;;;7.30;99.90;;;;;;6157823;23;19927;-83
2023/03/05 10:39:09;;;;;;;;;;;7.50;99.90;;;;;;6260465;22;19905;-83
2023/03/05 10:41:41;;;;;;;;;;;7.70;49.90;;;;;;6159896;23;19905;-83
2023/03/05 10:44:09;;;;;;;;;;;7.70;1.00;;;;;;6160136;23;19909;-83
2023/03/05 10:46:36;;;;;;;;;;;7.70;99.90;;;;;;6259416;22;19915;-83
2023/03/05 10:49:17;;;;;;;;;;;7.60;99.90;;;;;;6260804;22;19908;-84
2023/03/05 10:51:57;;;;;;;;;;;7.70;99.90;;;;;;6260719;22;20322;-83
2023/03/05 10:54:29;;;;;;;;;;;7.70;99.90;;;;;;6260338;22;19954;-83
2023/03/05 10:57:02;;;;;;;;;;;7.70;99.90;;;;;;6156970;23;20329;-83
2023/03/05 10:59:27;;;;;;;;;;;7.60;99.90;;;;;;6260315;22;19955;-83
2023/03/05 11:02:04;;;;;;;;;;;7.50;1.00;;;;;;6156420;23;19905;-83
2023/03/05 11:04:34;;;;;;;;;;;7.70;1.00;;;;;;6262795;22;19909;-84
2023/03/05 11:07:04;;;;;;;;;;;7.90;99.90;;;;;;6258600;22;19904;-82
2023/03/05 11:09:31;;;;;;;;;;;8.20;99.90;;;;;;6150927;23;19909;-80
2023/03/05 11:12:08;;;;;;;;;;;8.50;1.00;;;;;;6254522;22;19991;-81
2023/03/05 11:14:35;;;;;;;;;;;8.80;1.00;;;;;;6150607;23;19936;-82
2023/03/05 11:17:02;;;;;;;;;;;9.00;72.90;;;;;;6256165;22;19911;-83
2023/03/05 11:19:31;;;;;;;;;;;8.90;1.00;;;;;;6256318;22;19905;-83
2023/03/05 11:22:13;;;;;;;;;;;8.70;1.00;;;;;;6254732;22;19904;-82
2023/03/05 11:24:40;;;;;;;;;;;8.40;99.90;;;;;;6256186;22;19908;-83
2023/03/05 11:27:23;;;;;;;;;;;8.20;1.00;;;;;;6153005;23;19908;-83
2023/03/05 11:29:48;;;;;;;;;;;7.80;1.00;;;;;;6255542;22;19927;-83
2023/03/05 11:32:21;;;;;;;;;;;7.60;30.40;;;;;;6255161;22;19908;-82
2023/03/05 11:34:47;;;;;;;;;;;7.50;1.00;;;;;;6152458;23;19904;-82
2023/03/05 11:37:27;;;;;;;;;;;7.40;1.00;;;;;;6255586;22;19987;-83
2023/03/05 11:40:19;;;;;;;;;;;7.40;99.90;;;;;;6255205;22;19912;-82
2023/03/05 11:42:49;;;;;;;;;;;7.30;99.90;;;;;;6157880;22;19911;-80
2023/03/05 11:45:15;;;;;;;;;;;7.30;1.00;;;;;;6159854;23;20003;-80
2023/03/05 11:47:46;;;;;;;;;;;7.30;99.90;;;;;;6155848;23;19939;-80
2023/03/05 11:50:18;;;;;;;;;;;7.40;99.90;;;;;;6257558;22;19905;-80
2023/03/05 11:52:45;;;;;;;;;;;7.80;1.00;;;;;;6153344;23;19909;-80
2023/03/05 12:34:10;;;;;;;;;;;8.30;99.90;;;;;;6133680;22;19921;-79
2023/03/05 12:37:20;;;;;;;;;;;;;;;;;;;;;
2023/03/05 14:23:00;;;;;;;;;;;8.00;1.00;;;;;;6125138;22;19920;-78
2023/03/05 14:25:37;;;;;;;;;;;8.00;1.00;;;;;;6100417;23;19917;-79
2023/03/05 14:28:36;;;;;;;;;;;7.90;1.00;;;;;;6100840;23;19905;-79
2023/03/05 14:31:31;;;;;;;;;;;7.80;99.90;;;;;;6108989;23;19941;-79
2023/03/05 14:34:20;;;;;;;;;;;7.90;1.00;;;;;;6150412;23;20321;-78
2023/03/05 14:37:03;;;;;;;;;;;7.80;1.00;;;;;;6100274;22;19909;-79
2023/03/05 14:40:07;;;;;;;;;;;7.80;17.20;;;;;;6100266;23;19905;-79
2023/03/05 14:42:52;;;;;;;;;;;;;;;;;;;;;
2023/03/05 14:52:05;;;;;;;;;;;7.80;99.90;;;;;;6091397;23;19909;-80
2023/03/05 15:48:16;;;;;;;;;;;7.50;82.50;;;;;;6126292;22;20262;-81
2023/03/05 15:51:20;;;;;;;;;;;7.40;99.90;;;;;;6123721;23;19909;-82
2023/03/05 15:54:03;;;;;;;;;;;7.30;1.00;;;;;;6124752;23;19912;-80
2023/03/05 16:11:57;;;;;;;;;;;7.50;99.90;;;;;;6145000;23;20041;-81
2023/03/05 16:14:24;;;;;;;;;;;7.40;99.90;;;;;;6099838;23;19905;-80
2023/03/05 16:17:36;;;;;;;;;;;;;;;;;;;;;
2023/03/05 16:20:02;;;;;;;;;;;7.30;1.00;;;;;;6125482;23;19989;-81
2023/03/05 16:22:29;;;;;;;;;;;7.30;99.90;;;;;;6123135;23;19905;-80
2023/03/05 16:27:52;;;;;;;;;;;7.20;99.90;;;;;;6044551;23;19975;-80
2023/03/05 16:30:18;;;;;;;;;;;7.20;1.00;;;;;;6123519;22;20277;-80
2023/03/05 16:32:43;;;;;;;;;;;7.10;1.00;;;;;;6097391;23;20384;-82
2023/03/05 17:56:11;;;;;;;;;;;6.40;99.90;;;;;;6123941;22;19921;-84
2023/03/05 17:58:36;;;;;;;;;;;6.30;99.90;;;;;;6126101;23;19912;-85
2023/03/05 18:01:02;;;;;;;;;;;6.30;99.90;;;;;;6123430;23;19905;-84
2023/03/05 18:03:27;;;;;;;;;;;6.30;99.90;;;;;;6121808;23;20228;-84
2023/03/05 18:05:53;;;;;;;;;;;6.30;99.90;;;;;;6122915;23;19948;-84
2023/03/05 18:08:18;;;;;;;;;;;6.30;99.90;;;;;;6098786;23;19912;-84
2023/03/05 18:10:44;;;;;;;;;;;6.30;99.90;;;;;;6124565;23;19916;-84
2023/03/05 18:13:09;;;;;;;;;;;6.30;99.90;;;;;;6124772;23;19935;-84
2023/03/05 18:15:36;;;;;;;;;;;6.20;1.00;;;;;;6124009;23;19915;-85
2023/03/05 18:18:01;;;;;;;;;;;6.30;1.00;;;;;;6097741;23;19909;-84
2023/03/05 18:20:35;;;;;;;;;;;6.20;1.00;;;;;;6099033;23;19912;-85
2023/03/05 18:23:01;;;;;;;;;;;6.20;1.00;;;;;;6122830;23;19991;-85
2023/03/05 18:25:29;;;;;;;;;;;6.30;1.00;;;;;;6125415;23;19916;-84
2023/03/05 18:27:58;;;;;;;;;;;6.30;1.00;;;;;;6123472;23;20246;-84
2023/03/05 18:30:23;;;;;;;;;;;6.30;1.00;;;;;;6122230;23;19905;-84
2023/03/05 18:32:50;;;;;;;;;;;6.40;1.00;;;;;;6096320;23;19905;-84
2023/03/05 18:35:15;;;;;;;;;;;6.40;1.00;;;;;;6097752;23;19958;-84
2023/03/05 18:37:41;;;;;;;;;;;6.30;1.00;;;;;;6124511;23;19905;-85
2023/03/05 18:40:08;;;;;;;;;;;6.20;1.00;;;;;;6096598;23;19905;-84
2023/03/05 18:42:37;;;;;;;;;;;6.10;1.00;;;;;;6120224;23;19909;-84
2023/03/05 18:45:04;;;;;;;;;;;6.20;1.00;;;;;;6123366;23;20331;-84
2023/03/05 18:47:31;;;;;;;;;;;6.10;1.00;;;;;;6097560;23;19933;-84
2023/03/05 18:49:57;;;;;;;;;;;6.00;1.00;;;;;;6124723;23;19912;-84
2023/03/05 18:52:22;;;;;;;;;;;5.90;1.00;;;;;;6123233;23;19905;-84
2023/03/05 18:54:47;;;;;;;;;;;6.00;1.00;;;;;;6124427;23;20394;-85
2023/03/05 18:57:13;;;;;;;;;;;6.10;1.00;;;;;;6131203;23;19906;-84
2023/03/05 18:59:39;;;;;;;;;;;6.10;1.00;;;;;;6127009;23;19905;-85
2023/03/05 19:02:05;;;;;;;;;;;6.10;1.00;;;;;;6127753;23;20409;-85
2023/03/05 19:04:31;;;;;;;;;;;6.20;1.00;;;;;;6129018;23;19962;-84
2023/03/05 19:06:56;;;;;;;;;;;6.20;1.00;;;;;;6126382;23;19905;-84
2023/03/05 19:10:01;;;;;;;;;;;6.20;1.00;;;;;;6126923;23;19912;-84
2023/03/05 19:12:29;;;;;;;;;;;6.30;1.00;;;;;;6124762;23;19905;-84
2023/03/05 19:14:56;;;;;;;;;;;6.20;1.00;;;;;;6129782;23;19920;-85
2023/03/05 19:17:21;;;;;;;;;;;6.20;1.00;;;;;;6129964;23;19905;-84
2023/03/05 19:19:50;;;;;;;;;;;6.30;1.00;;;;;;6129792;23;19905;-85
2023/03/05 19:22:18;;;;;;;;;;;6.30;1.00;;;;;;6100293;23;20384;-84
2023/03/05 19:24:43;;;;;;;;;;;6.30;1.00;;;;;;6100325;23;20224;-84
2023/03/05 19:27:10;;;;;;;;;;;6.20;1.00;;;;;;6124010;23;19905;-85
2023/03/05 19:29:36;;;;;;;;;;;6.20;1.00;;;;;;6125061;23;19905;-84
2023/03/05 19:32:05;;;;;;;;;;;6.20;1.00;;;;;;6123955;23;19951;-84
2023/03/05 19:34:31;;;;;;;;;;;6.10;1.00;;;;;;6125532;23;19905;-84
2023/03/05 19:36:56;;;;;;;;;;;6.00;1.00;;;;;;6124316;23;19947;-84
2023/03/05 19:39:22;;;;;;;;;;;6.10;1.00;;;;;;6099937;23;19932;-84
2023/03/05 19:41:48;;;;;;;;;;;6.10;1.00;;;;;;6124730;23;19928;-84
2023/03/05 19:44:13;;;;;;;;;;;6.10;1.00;;;;;;6123057;23;19929;-85